Cabazon, California
Current Conditions -  °F | °C
As of 2:53 PM on Tuesday 25 Nov 2014 (Local Time) from KPSP Reporting Station
Clear Clear  
Wind Chill: 74°   Ceiling: Unl
Heat Index: 74°   Visibility: 10mi
Dew Point: 13°   Wind: 5mph
Humidity: 10%   Direction: 130°SE
Pressure: 30.33"   Gusts: NA
Location:  33.92°N, 116.79°W
Report Text: KPSP 252253Z 13004KT 10SM CLR 23/M11 A3033 RMK AO2 SLP269 T02331106
Loading
Personal Weather Stations






























Interactive Weather Map New forecast layout! Learn more

10-Day Weather Forecast

Advertisements
Track Severe Weather on mobile